Time;durP1;ratioP1;P1;durP2;ratioP2;P2;SDS_P1;SDS_P2;PMS_P1;PMS_P2;Temp;Humidity;BMP_temperature;BMP_pressure;BME280_temperature;BME280_humidity;BME280_pressure;Samples;Min_cycle;Max_cycle;Signal;HPM_P1;HPM_P2
2023/06/04 00:01:00;;;;;;;7.82;5.25;;;;;;;;;;4907147;29;20047;-40
2023/06/04 00:03:25;;;;;;;6.35;4.95;;;;;;;;;;4907438;29;20039;-40
2023/06/04 00:05:50;;;;;;;4.80;4.40;;;;;;;;;;4909566;29;20048;-41
2023/06/04 00:08:16;;;;;;;5.18;4.70;;;;;;;;;;4910706;29;20430;-39
2023/06/04 00:10:41;;;;;;;4.78;4.38;;;;;;;;;;4907695;29;20048;-40
2023/06/04 00:13:07;;;;;;;6.20;4.18;;;;;;;;;;4908284;29;20039;-41
2023/06/04 00:15:32;;;;;;;9.60;5.07;;;;;;;;;;4907991;29;20029;-40
2023/06/04 00:17:58;;;;;;;6.45;4.75;;;;;;;;;;4907590;29;20115;-40
2023/06/04 00:20:23;;;;;;;5.13;4.60;;;;;;;;;;4909562;29;20025;-40
2023/06/04 00:22:48;;;;;;;7.35;4.55;;;;;;;;;;4909023;29;20040;-40
2023/06/04 00:25:14;;;;;;;6.03;4.88;;;;;;;;;;4907593;29;20043;-40
2023/06/04 00:27:39;;;;;;;9.43;5.30;;;;;;;;;;4908957;29;20048;-40
2023/06/04 00:30:07;;;;;;;8.90;5.38;;;;;;;;;;4908276;29;20029;-40
2023/06/04 00:32:32;;;;;;;8.43;5.03;;;;;;;;;;4902601;29;20091;-43
2023/06/04 00:34:57;;;;;;;5.30;4.78;;;;;;;;;;4907086;29;20060;-40
2023/06/04 00:37:24;;;;;;;6.47;5.30;;;;;;;;;;4908506;29;20076;-40
2023/06/04 00:39:49;;;;;;;6.78;4.97;;;;;;;;;;4893487;29;20366;-40
2023/06/04 00:42:15;;;;;;;5.55;5.05;;;;;;;;;;4908543;29;20042;-40
2023/06/04 00:44:44;;;;;;;5.78;5.18;;;;;;;;;;4908934;29;20028;-40
2023/06/04 00:47:12;;;;;;;7.25;5.55;;;;;;;;;;4903641;29;20041;-40
2023/06/04 00:49:38;;;;;;;7.63;5.43;;;;;;;;;;4905805;29;20035;-39
2023/06/04 00:52:03;;;;;;;7.00;5.63;;;;;;;;;;4908134;29;20063;-40
2023/06/04 00:54:29;;;;;;;11.05;5.15;;;;;;;;;;4907417;29;20381;-44
2023/06/04 00:56:54;;;;;;;6.10;5.20;;;;;;;;;;4908131;29;20131;-40
2023/06/04 00:59:20;;;;;;;5.80;5.18;;;;;;;;;;4905863;29;20036;-40
2023/06/04 01:01:55;;;;;;;7.35;5.10;;;;;;;;;;4907761;29;20052;-40
2023/06/04 01:04:36;;;;;;;6.18;5.65;;;;;;;;;;4907251;29;20090;-40
2023/06/04 01:07:04;;;;;;;7.75;5.88;;;;;;;;;;4908045;29;20075;-40
2023/06/04 01:09:30;;;;;;;8.38;5.50;;;;;;;;;;4906825;29;20055;-41
2023/06/04 01:11:58;;;;;;;11.32;6.18;;;;;;;;;;4906410;29;20043;-40
2023/06/04 01:14:24;;;;;;;11.23;5.82;;;;;;;;;;4907473;29;20099;-40
2023/06/04 01:17:01;;;;;;;8.68;5.65;;;;;;;;;;4908092;29;20032;-40
2023/06/04 01:20:05;;;;;;;6.85;5.72;;;;;;;;;;4904497;29;20043;-40
2023/06/04 01:23:00;;;;;;;7.05;5.45;;;;;;;;;;4903414;29;20048;-41
2023/06/04 01:25:41;;;;;;;6.85;5.43;;;;;;;;;;4906240;29;20079;-38
2023/06/04 01:28:07;;;;;;;8.23;5.80;;;;;;;;;;4906644;29;20114;-40
2023/06/04 01:30:43;;;;;;;6.47;5.88;;;;;;;;;;4906753;29;20035;-41
2023/06/04 01:33:10;;;;;;;7.50;5.70;;;;;;;;;;4905448;29;20032;-40
2023/06/04 01:35:36;;;;;;;8.70;5.88;;;;;;;;;;4907386;29;20036;-40
2023/06/04 01:38:02;;;;;;;7.10;5.72;;;;;;;;;;4907858;29;20056;-40
2023/06/04 01:40:28;;;;;;;7.03;5.75;;;;;;;;;;4906887;29;20186;-40
2023/06/04 01:42:54;;;;;;;8.05;5.90;;;;;;;;;;4907751;29;20438;-40
2023/06/04 01:45:21;;;;;;;7.82;6.07;;;;;;;;;;4906972;29;20103;-40
2023/06/04 01:47:46;;;;;;;6.68;5.95;;;;;;;;;;4906014;29;20032;-40
2023/06/04 01:50:12;;;;;;;8.45;5.65;;;;;;;;;;4906098;29;20042;-40
2023/06/04 01:52:38;;;;;;;6.20;5.70;;;;;;;;;;4903213;29;20044;-40
2023/06/04 01:55:05;;;;;;;7.28;5.60;;;;;;;;;;4909681;29;20062;-40
2023/06/04 01:57:30;;;;;;;6.78;5.68;;;;;;;;;;4907114;29;20485;-40
2023/06/04 01:59:56;;;;;;;5.53;5.03;;;;;;;;;;4907140;29;20111;-40
2023/06/04 02:02:21;;;;;;;5.85;5.35;;;;;;;;;;4905833;29;20048;-40
2023/06/04 02:04:47;;;;;;;7.72;5.65;;;;;;;;;;4910860;29;20481;-40
2023/06/04 02:07:17;;;;;;;6.28;5.68;;;;;;;;;;4908200;29;20131;-40
2023/06/04 02:09:43;;;;;;;8.70;5.57;;;;;;;;;;4905329;29;20119;-40
2023/06/04 02:12:09;;;;;;;7.00;5.47;;;;;;;;;;4907336;29;20557;-40
2023/06/04 02:14:34;;;;;;;7.28;6.05;;;;;;;;;;4904182;29;20122;-40
2023/06/04 02:16:59;;;;;;;6.93;5.40;;;;;;;;;;4909207;29;20508;-40
2023/06/04 02:19:28;;;;;;;7.25;5.40;;;;;;;;;;4905309;29;20492;-40
2023/06/04 02:21:53;;;;;;;7.75;6.03;;;;;;;;;;4907300;29;20045;-40
2023/06/04 02:24:19;;;;;;;7.68;5.20;;;;;;;;;;4907659;29;20488;-39
2023/06/04 02:26:45;;;;;;;8.05;5.55;;;;;;;;;;4905595;29;20091;-40
2023/06/04 02:29:10;;;;;;;6.43;5.70;;;;;;;;;;4907543;29;20536;-40
2023/06/04 02:31:35;;;;;;;9.63;5.78;;;;;;;;;;4906216;29;20457;-40
2023/06/04 02:34:01;;;;;;;7.20;5.38;;;;;;;;;;4906480;29;20031;-40
2023/06/04 02:36:28;;;;;;;6.93;5.38;;;;;;;;;;4907446;29;20632;-40
2023/06/04 02:38:54;;;;;;;5.82;5.25;;;;;;;;;;4906759;29;20426;-40
2023/06/04 02:41:19;;;;;;;9.25;5.60;;;;;;;;;;4907803;29;20040;-40
2023/06/04 02:43:45;;;;;;;7.22;5.90;;;;;;;;;;4905484;29;20027;-40
2023/06/04 02:46:10;;;;;;;6.25;5.55;;;;;;;;;;4903324;29;20044;-40
2023/06/04 02:48:35;;;;;;;7.20;5.53;;;;;;;;;;4907193;29;20024;-40
2023/06/04 02:51:01;;;;;;;6.97;5.70;;;;;;;;;;4906770;29;20036;-40
2023/06/04 02:53:26;;;;;;;11.00;6.15;;;;;;;;;;4907758;29;20055;-40
2023/06/04 02:55:52;;;;;;;6.38;5.65;;;;;;;;;;4907287;29;20992;-40
2023/06/04 02:58:18;;;;;;;5.82;5.32;;;;;;;;;;4905713;29;20103;-39
2023/06/04 03:00:44;;;;;;;6.40;5.80;;;;;;;;;;4903016;29;20055;-40
2023/06/04 03:03:10;;;;;;;6.45;5.65;;;;;;;;;;4903124;29;20033;-40
2023/06/04 03:05:36;;;;;;;11.45;5.68;;;;;;;;;;4904754;29;20032;-39
2023/06/04 03:08:03;;;;;;;7.22;5.40;;;;;;;;;;4908414;29;20177;-40
2023/06/04 03:10:29;;;;;;;6.00;5.35;;;;;;;;;;4907601;29;20442;-41
2023/06/04 03:12:55;;;;;;;5.88;5.22;;;;;;;;;;4906026;29;20171;-40
2023/06/04 03:15:20;;;;;;;6.32;5.72;;;;;;;;;;4903123;29;20234;-40
2023/06/04 03:17:46;;;;;;;6.60;6.00;;;;;;;;;;4903651;29;20189;-40
2023/06/04 03:20:12;;;;;;;9.55;6.25;;;;;;;;;;4906197;29;20036;-40
2023/06/04 03:22:37;;;;;;;6.00;5.47;;;;;;;;;;4906754;29;20048;-40
2023/06/04 03:25:03;;;;;;;6.38;5.68;;;;;;;;;;4908274;29;20555;-40
2023/06/04 03:27:32;;;;;;;7.18;5.35;;;;;;;;;;4910815;29;20520;-40
2023/06/04 03:29:57;;;;;;;6.25;5.40;;;;;;;;;;4909739;29;20410;-40
2023/06/04 03:32:23;;;;;;;6.10;5.22;;;;;;;;;;4910193;29;20131;-40
2023/06/04 03:34:48;;;;;;;6.63;5.88;;;;;;;;;;4908036;29;20028;-40
2023/06/04 03:37:14;;;;;;;7.95;5.82;;;;;;;;;;4907899;29;20067;-41
2023/06/04 03:39:39;;;;;;;6.05;5.50;;;;;;;;;;4911270;29;20031;-40
2023/06/04 03:42:05;;;;;;;6.35;5.75;;;;;;;;;;4908901;29;20135;-40
2023/06/04 03:44:30;;;;;;;5.93;5.32;;;;;;;;;;4909059;29;20031;-39
2023/06/04 03:46:56;;;;;;;7.43;5.40;;;;;;;;;;4909703;29;20103;-40
2023/06/04 03:49:21;;;;;;;6.82;5.32;;;;;;;;;;4908632;29;20030;-40
2023/06/04 03:51:47;;;;;;;8.13;5.85;;;;;;;;;;4906129;29;20573;-39
2023/06/04 03:54:16;;;;;;;9.07;5.53;;;;;;;;;;4911267;29;20062;-40
2023/06/04 03:56:42;;;;;;;5.95;5.03;;;;;;;;;;4908597;29;20044;-40
2023/06/04 03:59:08;;;;;;;6.38;5.45;;;;;;;;;;4906708;29;20025;-40
2023/06/04 04:01:34;;;;;;;6.65;5.60;;;;;;;;;;4907867;29;20493;-40
2023/06/04 04:03:59;;;;;;;5.30;4.88;;;;;;;;;;4909393;29;20036;-40
2023/06/04 04:06:25;;;;;;;5.07;4.68;;;;;;;;;;4910056;29;21178;-39
2023/06/04 04:08:50;;;;;;;7.57;5.10;;;;;;;;;;4909560;29;20020;-40
2023/06/04 04:11:16;;;;;;;5.80;4.78;;;;;;;;;;4908750;29;20044;-39
2023/06/04 04:13:44;;;;;;;6.25;5.43;;;;;;;;;;4909035;29;20025;-41
2023/06/04 04:16:10;;;;;;;11.35;6.97;;;;;;;;;;4909522;29;20039;-40
2023/06/04 04:18:36;;;;;;;5.40;4.90;;;;;;;;;;4909782;29;20028;-40
2023/06/04 04:21:02;;;;;;;5.72;5.22;;;;;;;;;;4905028;29;20051;-40
2023/06/04 04:23:28;;;;;;;7.60;6.03;;;;;;;;;;4906930;29;20165;-40
2023/06/04 04:25:56;;;;;;;8.20;5.15;;;;;;;;;;4905982;29;20524;-40
2023/06/04 04:28:22;;;;;;;9.65;5.55;;;;;;;;;;4908141;29;20044;-40
2023/06/04 04:30:48;;;;;;;5.85;5.15;;;;;;;;;;4909051;29;20468;-41
2023/06/04 04:33:15;;;;;;;7.03;5.45;;;;;;;;;;4907518;29;20048;-40
2023/06/04 04:35:44;;;;;;;7.45;5.30;;;;;;;;;;4905919;29;20021;-40
2023/06/04 04:38:10;;;;;;;7.90;5.18;;;;;;;;;;4908891;29;20067;-40
2023/06/04 04:40:36;;;;;;;7.15;5.20;;;;;;;;;;4905096;29;20080;-40
2023/06/04 04:43:01;;;;;;;5.97;5.07;;;;;;;;;;4910200;29;20024;-40
2023/06/04 04:45:27;;;;;;;9.00;4.70;;;;;;;;;;4909283;29;20397;-41
2023/06/04 04:47:52;;;;;;;7.07;5.18;;;;;;;;;;4907469;29;20051;-40
2023/06/04 04:50:17;;;;;;;8.20;5.22;;;;;;;;;;4907605;29;20036;-40
2023/06/04 04:52:43;;;;;;;5.22;4.70;;;;;;;;;;4908955;29;20482;-39
2023/06/04 04:55:09;;;;;;;7.55;4.95;;;;;;;;;;4907415;29;20047;-40
2023/06/04 04:57:34;;;;;;;7.28;4.80;;;;;;;;;;4906545;29;20040;-40
2023/06/04 05:00:00;;;;;;;5.30;4.88;;;;;;;;;;4908223;29;20024;-40
2023/06/04 05:02:25;;;;;;;5.15;4.60;;;;;;;;;;4906410;29;20123;-41
2023/06/04 05:04:51;;;;;;;6.57;5.05;;;;;;;;;;4908926;29;20359;-40
2023/06/04 05:07:16;;;;;;;5.60;4.95;;;;;;;;;;4907984;29;20056;-40
2023/06/04 05:09:42;;;;;;;5.40;4.65;;;;;;;;;;4908758;29;20127;-40
2023/06/04 05:12:07;;;;;;;8.13;4.78;;;;;;;;;;4905669;29;20056;-40
2023/06/04 05:14:35;;;;;;;7.43;4.57;;;;;;;;;;4907067;29;20072;-40
2023/06/04 05:17:04;;;;;;;5.55;4.90;;;;;;;;;;4905742;29;20052;-40
2023/06/04 05:19:32;;;;;;;5.22;4.53;;;;;;;;;;4909135;29;20028;-40
2023/06/04 05:21:58;;;;;;;5.88;4.28;;;;;;;;;;4905345;29;20036;-40
2023/06/04 05:24:24;;;;;;;4.18;3.88;;;;;;;;;;4909076;29;20031;-40
2023/06/04 05:26:49;;;;;;;5.20;3.75;;;;;;;;;;4906702;29;20471;-40
2023/06/04 05:29:15;;;;;;;6.30;3.63;;;;;;;;;;4907623;29;20041;-40
2023/06/04 05:31:40;;;;;;;4.40;4.00;;;;;;;;;;4905001;29;20036;-41
2023/06/04 05:34:06;;;;;;;4.68;3.45;;;;;;;;;;4906373;29;20046;-39
2023/06/04 05:36:31;;;;;;;4.70;3.58;;;;;;;;;;4907693;29;20036;-40
2023/06/04 05:38:57;;;;;;;5.78;3.20;;;;;;;;;;4890318;29;20507;-41
2023/06/04 05:41:27;;;;;;;4.30;3.17;;;;;;;;;;4907516;29;20099;-40
2023/06/04 05:43:53;;;;;;;3.35;3.03;;;;;;;;;;4907375;29;20043;-40
2023/06/04 05:46:18;;;;;;;3.17;2.67;;;;;;;;;;4907375;29;20048;-41
2023/06/04 05:48:44;;;;;;;6.72;3.05;;;;;;;;;;4907941;29;20052;-40
2023/06/04 05:51:09;;;;;;;3.05;2.70;;;;;;;;;;4907914;29;20107;-40
2023/06/04 05:53:35;;;;;;;3.53;2.75;;;;;;;;;;4907778;29;20130;-40
2023/06/04 05:56:00;;;;;;;7.22;2.92;;;;;;;;;;4909059;29;20119;-41
2023/06/04 05:58:26;;;;;;;3.13;2.63;;;;;;;;;;4904758;29;20111;-40
2023/06/04 06:00:51;;;;;;;3.13;2.60;;;;;;;;;;4908105;29;20123;-40
2023/06/04 06:03:16;;;;;;;4.32;2.50;;;;;;;;;;4905862;29;20055;-40
2023/06/04 06:05:45;;;;;;;4.97;3.05;;;;;;;;;;4907377;29;20040;-40
2023/06/04 06:08:10;;;;;;;3.88;3.58;;;;;;;;;;4906535;29;20048;-40
2023/06/04 06:10:36;;;;;;;6.05;3.45;;;;;;;;;;4908289;29;20040;-41
2023/06/04 06:13:01;;;;;;;2.85;2.60;;;;;;;;;;4905499;29;20024;-41
2023/06/04 06:15:28;;;;;;;3.67;2.60;;;;;;;;;;4907488;29;20044;-40
2023/06/04 06:17:54;;;;;;;5.32;2.33;;;;;;;;;;4907618;29;20082;-40
2023/06/04 06:20:20;;;;;;;3.10;2.20;;;;;;;;;;4904939;29;20115;-40
2023/06/04 06:22:46;;;;;;;2.17;2.08;;;;;;;;;;4888432;29;20568;-40
2023/06/04 06:25:12;;;;;;;2.28;2.17;;;;;;;;;;4907169;29;20041;-40
2023/06/04 06:27:39;;;;;;;3.20;2.22;;;;;;;;;;4907974;29;20162;-41
2023/06/04 06:30:06;;;;;;;3.65;2.50;;;;;;;;;;4908352;29;20473;-40
2023/06/04 06:32:32;;;;;;;3.88;2.58;;;;;;;;;;4904834;29;20180;-40
2023/06/04 06:34:57;;;;;;;3.97;2.40;;;;;;;;;;4908059;29;20177;-40
2023/06/04 06:37:22;;;;;;;4.20;2.25;;;;;;;;;;4904357;29;20520;-40
2023/06/04 06:39:48;;;;;;;2.75;2.38;;;;;;;;;;4908275;29;20401;-40
2023/06/04 06:42:13;;;;;;;2.80;2.60;;;;;;;;;;4903848;29;20028;-41
2023/06/04 06:44:39;;;;;;;3.38;2.45;;;;;;;;;;4906651;29;20134;-41
2023/06/04 06:47:04;;;;;;;2.28;2.15;;;;;;;;;;4907125;29;20552;-41
2023/06/04 06:49:30;;;;;;;3.83;2.38;;;;;;;;;;4906718;29;20028;-40
2023/06/04 06:51:55;;;;;;;2.40;2.30;;;;;;;;;;4907657;29;20050;-40
2023/06/04 06:54:21;;;;;;;3.88;2.28;;;;;;;;;;4908394;29;20065;-40
2023/06/04 06:56:49;;;;;;;2.80;2.30;;;;;;;;;;4907140;29;20044;-40
2023/06/04 06:59:14;;;;;;;3.53;2.25;;;;;;;;;;4909764;29;20028;-40
2023/06/04 07:01:40;;;;;;;2.80;2.50;;;;;;;;;;4909800;29;20059;-40
2023/06/04 07:04:06;;;;;;;3.40;2.55;;;;;;;;;;4910372;29;20420;-40
2023/06/04 07:06:32;;;;;;;7.90;2.63;;;;;;;;;;4907375;29;20048;-40
2023/06/04 07:08:57;;;;;;;2.70;2.50;;;;;;;;;;4908578;29;20032;-39
2023/06/04 07:11:23;;;;;;;4.65;2.40;;;;;;;;;;4888924;29;20052;-40
2023/06/04 07:13:48;;;;;;;2.72;2.45;;;;;;;;;;4887127;29;20048;-40
2023/06/04 07:16:13;;;;;;;2.50;2.30;;;;;;;;;;4889274;29;20044;-40
2023/06/04 07:18:39;;;;;;;2.97;2.35;;;;;;;;;;4889546;29;20020;-40
2023/06/04 07:21:05;;;;;;;3.45;2.42;;;;;;;;;;4888798;29;20065;-40
2023/06/04 07:23:30;;;;;;;3.08;2.30;;;;;;;;;;4889271;29;20032;-40
2023/06/04 07:25:57;;;;;;;6.28;2.85;;;;;;;;;;4888364;29;20104;-40
2023/06/04 07:28:22;;;;;;;2.40;2.20;;;;;;;;;;4889563;29;20915;-40
2023/06/04 07:30:48;;;;;;;2.90;2.35;;;;;;;;;;4891373;29;20387;-40
2023/06/04 07:33:13;;;;;;;2.45;2.10;;;;;;;;;;4890578;29;20073;-40
2023/06/04 07:35:39;;;;;;;5.20;2.40;;;;;;;;;;4887870;29;20040;-40
2023/06/04 07:38:04;;;;;;;2.88;2.65;;;;;;;;;;4887378;29;20024;-40
2023/06/04 07:40:30;;;;;;;4.78;2.42;;;;;;;;;;4891511;29;20088;-40
2023/06/04 07:42:55;;;;;;;3.75;2.70;;;;;;;;;;4889484;29;20025;-43
2023/06/04 07:45:21;;;;;;;2.47;2.28;;;;;;;;;;4891272;29;20674;-40
2023/06/04 07:47:46;;;;;;;3.40;3.20;;;;;;;;;;4888465;29;20114;-40
2023/06/04 07:50:12;;;;;;;3.28;2.55;;;;;;;;;;4886959;29;20040;-40
2023/06/04 07:52:37;;;;;;;4.55;2.85;;;;;;;;;;4885150;29;20057;-40
2023/06/04 07:55:03;;;;;;;3.13;2.80;;;;;;;;;;4885977;29;20133;-40
2023/06/04 07:57:29;;;;;;;8.10;2.78;;;;;;;;;;4888595;29;20115;-40
2023/06/04 07:59:54;;;;;;;2.80;2.55;;;;;;;;;;4890002;29;20033;-40
2023/06/04 08:02:20;;;;;;;2.80;2.60;;;;;;;;;;4890686;29;20053;-41
2023/06/04 08:04:48;;;;;;;2.85;2.65;;;;;;;;;;4888549;29;20033;-40
2023/06/04 08:07:14;;;;;;;2.80;2.60;;;;;;;;;;4888765;29;20049;-40
2023/06/04 08:09:39;;;;;;;6.03;3.63;;;;;;;;;;4894692;29;20908;-40
2023/06/04 08:12:05;;;;;;;4.45;2.33;;;;;;;;;;4903108;29;20040;-40
2023/06/04 08:14:31;;;;;;;3.92;2.50;;;;;;;;;;4905519;29;20036;-40
2023/06/04 08:16:57;;;;;;;5.47;3.00;;;;;;;;;;4905956;29;20048;-40
2023/06/04 08:19:23;;;;;;;2.53;2.33;;;;;;;;;;4902656;29;20055;-40
2023/06/04 08:21:49;;;;;;;4.72;2.38;;;;;;;;;;4908165;29;20036;-40
2023/06/04 08:24:15;;;;;;;2.45;2.03;;;;;;;;;;4904252;29;20064;-40
2023/06/04 08:26:40;;;;;;;2.20;2.10;;;;;;;;;;4899958;29;20750;-40
2023/06/04 08:29:06;;;;;;;6.95;2.47;;;;;;;;;;4905829;29;20039;-42
2023/06/04 08:31:32;;;;;;;2.55;2.35;;;;;;;;;;4903708;29;20039;-41
2023/06/04 08:33:57;;;;;;;4.25;2.63;;;;;;;;;;4903848;29;20046;-40
2023/06/04 08:36:23;;;;;;;2.45;2.25;;;;;;;;;;4906720;29;20490;-40
2023/06/04 08:38:50;;;;;;;3.88;2.33;;;;;;;;;;4906652;29;20032;-41
2023/06/04 08:41:22;;;;;;;5.15;2.20;;;;;;;;;;4908037;29;20051;-40
2023/06/04 08:43:49;;;;;;;2.33;2.17;;;;;;;;;;4910526;29;20553;-40
2023/06/04 08:46:17;;;;;;;2.70;2.38;;;;;;;;;;4905493;29;20040;-41
2023/06/04 08:48:43;;;;;;;5.07;2.30;;;;;;;;;;4904034;29;20032;-40
2023/06/04 08:51:10;;;;;;;2.38;2.15;;;;;;;;;;4907233;29;20091;-41
2023/06/04 08:53:36;;;;;;;2.90;1.85;;;;;;;;;;4901101;29;20043;-40
2023/06/04 08:56:02;;;;;;;2.40;2.20;;;;;;;;;;4905087;29;20044;-49
2023/06/04 08:58:31;;;;;;;2.40;2.20;;;;;;;;;;4906656;29;20055;-40
2023/06/04 09:00:57;;;;;;;4.93;2.60;;;;;;;;;;4904235;29;20136;-40
2023/06/04 09:03:24;;;;;;;5.78;2.25;;;;;;;;;;4902100;29;20024;-41
2023/06/04 09:05:50;;;;;;;8.88;2.30;;;;;;;;;;4900767;29;20107;-40
2023/06/04 09:08:18;;;;;;;2.03;1.92;;;;;;;;;;4899116;29;20486;-41
2023/06/04 09:10:44;;;;;;;3.75;2.30;;;;;;;;;;4902157;29;20053;-40
2023/06/04 09:13:11;;;;;;;4.13;2.70;;;;;;;;;;4906776;29;20067;-40
2023/06/04 09:15:36;;;;;;;5.43;2.30;;;;;;;;;;4908768;29;20142;-41
2023/06/04 09:18:02;;;;;;;4.07;2.17;;;;;;;;;;4905704;29;20043;-41
2023/06/04 09:20:28;;;;;;;5.05;2.20;;;;;;;;;;4901516;29;20154;-40
2023/06/04 09:22:53;;;;;;;3.08;2.40;;;;;;;;;;4908863;29;20034;-40
2023/06/04 09:25:26;;;;;;;2.20;2.10;;;;;;;;;;4908470;29;20041;-40
2023/06/04 09:27:53;;;;;;;3.58;2.20;;;;;;;;;;4906439;29;20056;-40
2023/06/04 09:30:18;;;;;;;3.03;2.38;;;;;;;;;;4902610;29;20036;-40
2023/06/04 09:32:44;;;;;;;3.03;2.83;;;;;;;;;;4884079;29;20668;-40
2023/06/04 09:35:17;;;;;;;3.83;2.47;;;;;;;;;;4903175;29;20040;-40
2023/06/04 09:37:51;;;;;;;5.28;2.50;;;;;;;;;;4903374;29;20553;-40
2023/06/04 09:40:16;;;;;;;3.33;2.10;;;;;;;;;;4903842;29;20044;-40
2023/06/04 09:42:43;;;;;;;3.88;2.55;;;;;;;;;;4904728;29;20528;-41
2023/06/04 09:45:08;;;;;;;5.68;3.67;;;;;;;;;;4903361;29;20083;-40
2023/06/04 09:47:44;;;;;;;7.03;3.05;;;;;;;;;;4901278;29;20044;-39
2023/06/04 09:50:12;;;;;;;5.38;3.10;;;;;;;;;;4904939;29;20028;-40
2023/06/04 09:52:39;;;;;;;3.28;2.65;;;;;;;;;;4901520;29;20629;-39
2023/06/04 09:55:18;;;;;;;3.85;2.53;;;;;;;;;;4902810;29;20397;-40
2023/06/04 09:57:50;;;;;;;3.47;2.58;;;;;;;;;;4903013;29;20135;-40
2023/06/04 10:00:23;;;;;;;4.60;2.72;;;;;;;;;;4902884;29;20063;-40
2023/06/04 10:02:54;;;;;;;6.05;2.85;;;;;;;;;;4906188;29;20154;-40
2023/06/04 10:05:21;;;;;;;2.67;2.50;;;;;;;;;;4904276;29;20742;-40
2023/06/04 10:07:51;;;;;;;4.15;2.67;;;;;;;;;;4902482;29;20051;-41
2023/06/04 10:10:25;;;;;;;4.18;2.95;;;;;;;;;;4902021;29;20049;-40
2023/06/04 10:13:01;;;;;;;2.97;2.50;;;;;;;;;;4903407;29;20116;-40
2023/06/04 10:15:26;;;;;;;3.22;2.20;;;;;;;;;;4898110;29;20358;-40
2023/06/04 10:17:54;;;;;;;4.28;2.55;;;;;;;;;;4900717;29;20072;-40
2023/06/04 10:20:21;;;;;;;4.45;2.30;;;;;;;;;;4905430;29;20032;-40
2023/06/04 10:22:47;;;;;;;2.50;2.30;;;;;;;;;;4885359;29;20036;-40
2023/06/04 10:25:15;;;;;;;3.53;2.70;;;;;;;;;;4904651;29;20033;-45
2023/06/04 10:27:40;;;;;;;6.57;3.40;;;;;;;;;;4901295;29;20041;-40
2023/06/04 10:30:06;;;;;;;3.28;2.92;;;;;;;;;;4905513;29;20028;-40
2023/06/04 10:32:32;;;;;;;5.18;3.55;;;;;;;;;;4908813;29;20047;-40
2023/06/04 10:34:58;;;;;;;2.45;2.33;;;;;;;;;;4909207;29;20393;-41
2023/06/04 10:37:24;;;;;;;7.00;2.85;;;;;;;;;;4910295;29;20172;-40
2023/06/04 10:39:55;;;;;;;5.53;3.10;;;;;;;;;;4911092;29;20484;-40
2023/06/04 10:42:21;;;;;;;3.28;2.92;;;;;;;;;;4911614;29;20091;-43
2023/06/04 10:44:49;;;;;;;4.35;3.33;;;;;;;;;;4910090;29;20055;-40
2023/06/04 10:47:22;;;;;;;5.30;3.63;;;;;;;;;;4907701;29;20064;-40
2023/06/04 10:49:49;;;;;;;4.60;4.00;;;;;;;;;;4908341;29;20047;-40
2023/06/04 10:52:14;;;;;;;5.72;4.97;;;;;;;;;;4911915;29;20048;-41
2023/06/04 10:54:42;;;;;;;5.05;3.85;;;;;;;;;;4908603;29;20631;-40
2023/06/04 10:57:18;;;;;;;4.32;3.92;;;;;;;;;;4909283;29;20044;-40
2023/06/04 10:59:56;;;;;;;3.63;3.33;;;;;;;;;;4908747;29;20054;-40
2023/06/04 11:02:22;;;;;;;3.47;3.17;;;;;;;;;;4896510;29;20052;-40
2023/06/04 11:05:05;;;;;;;8.55;3.53;;;;;;;;;;4908211;29;20036;-40
2023/06/04 11:07:43;;;;;;;10.27;5.25;;;;;;;;;;4909039;29;20048;-42
2023/06/04 11:10:10;;;;;;;14.57;5.35;;;;;;;;;;4910955;29;20123;-41
2023/06/04 11:12:52;;;;;;;9.13;4.65;;;;;;;;;;4909258;29;20135;-43
2023/06/04 11:15:18;;;;;;;20.55;5.65;;;;;;;;;;4911084;29;20565;-41
2023/06/04 11:17:55;;;;;;;25.02;7.70;;;;;;;;;;4908168;29;20073;-40
2023/06/04 11:20:22;;;;;;;20.83;7.97;;;;;;;;;;4908613;29;20454;-40
2023/06/04 11:22:55;;;;;;;12.73;7.30;;;;;;;;;;4908636;29;20055;-42
2023/06/04 11:25:22;;;;;;;16.25;7.05;;;;;;;;;;4908079;29;20029;-41
2023/06/04 11:27:49;;;;;;;16.70;7.03;;;;;;;;;;4908755;29;20546;-41
2023/06/04 11:30:15;;;;;;;16.48;6.15;;;;;;;;;;4908237;29;20036;-42
2023/06/04 11:32:41;;;;;;;11.45;7.32;;;;;;;;;;4909444;29;20076;-41
2023/06/04 11:35:07;;;;;;;10.18;6.85;;;;;;;;;;4908445;29;20025;-41
2023/06/04 11:37:33;;;;;;;6.88;5.95;;;;;;;;;;4909248;29;20028;-41
2023/06/04 11:40:00;;;;;;;11.20;4.88;;;;;;;;;;4911949;29;20035;-41
2023/06/04 11:42:27;;;;;;;6.03;4.80;;;;;;;;;;4907291;29;20047;-41
2023/06/04 11:44:56;;;;;;;9.32;5.30;;;;;;;;;;4910021;29;20043;-41
2023/06/04 11:47:23;;;;;;;17.63;4.88;;;;;;;;;;4909577;29;20048;-41
2023/06/04 11:49:55;;;;;;;5.53;4.82;;;;;;;;;;4907507;29;20508;-41
2023/06/04 11:52:20;;;;;;;4.57;4.07;;;;;;;;;;4909198;29;20054;-41
2023/06/04 11:54:46;;;;;;;11.23;5.03;;;;;;;;;;4909525;29;20024;-41
2023/06/04 11:57:11;;;;;;;5.38;4.88;;;;;;;;;;4909205;29;20040;-41
2023/06/04 11:59:37;;;;;;;7.00;4.50;;;;;;;;;;4910612;29;20028;-41
2023/06/04 12:02:03;;;;;;;7.03;4.57;;;;;;;;;;4908523;29;20044;-41
2023/06/04 12:04:30;;;;;;;11.80;4.70;;;;;;;;;;4909274;29;20397;-41
2023/06/04 12:06:58;;;;;;;4.60;4.20;;;;;;;;;;4910319;29;20047;-41
2023/06/04 12:09:27;;;;;;;4.93;4.50;;;;;;;;;;4907157;29;20056;-41
2023/06/04 12:12:01;;;;;;;7.18;4.93;;;;;;;;;;4908793;29;20039;-41
2023/06/04 12:14:26;;;;;;;6.25;4.47;;;;;;;;;;4909237;29;20027;-41
2023/06/04 12:17:02;;;;;;;5.05;4.28;;;;;;;;;;4908859;29;20438;-43
2023/06/04 12:19:28;;;;;;;5.47;4.47;;;;;;;;;;4908129;29;20171;-41
2023/06/04 12:22:04;;;;;;;6.90;4.75;;;;;;;;;;4910387;29;20032;-41
2023/06/04 12:24:37;;;;;;;4.82;4.05;;;;;;;;;;4903528;29;20115;-41
2023/06/04 12:27:05;;;;;;;6.90;4.60;;;;;;;;;;4908461;29;20056;-42
2023/06/04 12:29:31;;;;;;;5.47;3.78;;;;;;;;;;4909193;29;20493;-41
2023/06/04 12:32:08;;;;;;;6.53;4.00;;;;;;;;;;4908078;29;20115;-41
2023/06/04 12:34:34;;;;;;;5.20;3.97;;;;;;;;;;4908767;29;20056;-41
2023/06/04 12:37:00;;;;;;;5.00;4.30;;;;;;;;;;4911810;29;20055;-41
2023/06/04 12:39:26;;;;;;;4.53;3.90;;;;;;;;;;4907356;29;20401;-42
2023/06/04 12:41:51;;;;;;;4.65;4.03;;;;;;;;;;4906569;29;20044;-42
2023/06/04 12:44:17;;;;;;;4.65;3.63;;;;;;;;;;4907020;29;20100;-41
2023/06/04 12:46:42;;;;;;;6.65;3.97;;;;;;;;;;4906884;29;20052;-41
2023/06/04 12:49:07;;;;;;;5.07;4.57;;;;;;;;;;4908321;29;20044;-41
2023/06/04 12:51:33;;;;;;;4.53;3.50;;;;;;;;;;4906806;29;20043;-41
2023/06/04 12:53:58;;;;;;;4.07;3.08;;;;;;;;;;4905283;29;20126;-41
2023/06/04 12:56:25;;;;;;;4.60;3.80;;;;;;;;;;4908357;29;20048;-41
2023/06/04 12:58:50;;;;;;;9.55;4.22;;;;;;;;;;4906595;29;20212;-42
2023/06/04 13:01:16;;;;;;;8.23;3.90;;;;;;;;;;4906053;29;20116;-41
2023/06/04 13:03:41;;;;;;;8.57;3.65;;;;;;;;;;4907833;29;20028;-41
2023/06/04 13:06:07;;;;;;;5.05;4.00;;;;;;;;;;4906576;29;20059;-41
2023/06/04 13:08:33;;;;;;;6.22;3.13;;;;;;;;;;4907958;29;20028;-41
2023/06/04 13:10:59;;;;;;;4.10;3.20;;;;;;;;;;4908517;29;20067;-42
2023/06/04 13:13:24;;;;;;;7.18;3.47;;;;;;;;;;4906101;29;20132;-42
2023/06/04 13:15:50;;;;;;;4.47;3.08;;;;;;;;;;4907844;29;20044;-41
2023/06/04 13:18:15;;;;;;;6.43;4.25;;;;;;;;;;4908645;29;20047;-41
2023/06/04 13:20:41;;;;;;;5.65;3.83;;;;;;;;;;4910881;29;20576;-42
2023/06/04 13:23:07;;;;;;;5.40;3.83;;;;;;;;;;4907635;29;20044;-42
2023/06/04 13:25:33;;;;;;;7.90;4.13;;;;;;;;;;4907609;29;20032;-41
2023/06/04 13:28:02;;;;;;;5.32;3.50;;;;;;;;;;4905692;29;20119;-41
2023/06/04 13:30:28;;;;;;;6.78;3.70;;;;;;;;;;4907724;29;20393;-41
2023/06/04 13:32:53;;;;;;;4.88;3.85;;;;;;;;;;4904024;29;20036;-42
2023/06/04 13:35:19;;;;;;;7.97;3.42;;;;;;;;;;4908078;29;20032;-42
2023/06/04 13:37:45;;;;;;;6.28;3.33;;;;;;;;;;4906364;29;20072;-41
2023/06/04 13:40:10;;;;;;;8.43;3.78;;;;;;;;;;4910913;29;20433;-42
2023/06/04 13:42:36;;;;;;;6.32;3.50;;;;;;;;;;4907773;29;20044;-44
2023/06/04 13:45:02;;;;;;;9.07;3.90;;;;;;;;;;4907892;29;20217;-41
2023/06/04 13:47:27;;;;;;;6.10;3.47;;;;;;;;;;4904585;29;20070;-42
2023/06/04 13:49:52;;;;;;;4.72;3.58;;;;;;;;;;4906700;29;20040;-42
2023/06/04 13:52:18;;;;;;;6.10;3.67;;;;;;;;;;4905635;29;20063;-41
2023/06/04 13:54:43;;;;;;;5.43;3.17;;;;;;;;;;4909000;29;20473;-42
2023/06/04 13:57:12;;;;;;;4.60;3.22;;;;;;;;;;4906311;29;20044;-41
2023/06/04 13:59:38;;;;;;;5.38;3.47;;;;;;;;;;4908788;29;20096;-42
2023/06/04 14:02:04;;;;;;;3.88;3.15;;;;;;;;;;4906545;29;20762;-43
2023/06/04 14:04:30;;;;;;;5.20;2.67;;;;;;;;;;4906606;29;20032;-43
2023/06/04 14:06:55;;;;;;;5.47;3.15;;;;;;;;;;4909650;29;20078;-44
2023/06/04 14:09:20;;;;;;;5.53;3.13;;;;;;;;;;4907937;29;20485;-42
2023/06/04 14:11:50;;;;;;;9.75;3.10;;;;;;;;;;4908484;29;20040;-41
2023/06/04 14:14:20;;;;;;;6.97;2.88;;;;;;;;;;4906927;29;20504;-41
2023/06/04 14:16:45;;;;;;;3.35;2.80;;;;;;;;;;4906580;29;20048;-41
2023/06/04 14:19:11;;;;;;;4.25;2.92;;;;;;;;;;4906188;29;20035;-41
2023/06/04 14:21:37;;;;;;;3.65;2.40;;;;;;;;;;4908064;29;20036;-43
2023/06/04 14:24:02;;;;;;;6.30;2.65;;;;;;;;;;4907418;29;20024;-41
2023/06/04 14:26:31;;;;;;;2.72;2.53;;;;;;;;;;4902275;29;20036;-41
2023/06/04 14:28:56;;;;;;;2.70;2.50;;;;;;;;;;4903393;29;20036;-42
2023/06/04 14:31:22;;;;;;;5.63;3.30;;;;;;;;;;4906131;29;20104;-41
2023/06/04 14:33:47;;;;;;;6.22;3.17;;;;;;;;;;4906009;29;20072;-41
2023/06/04 14:36:13;;;;;;;5.43;2.78;;;;;;;;;;4905167;29;20634;-41
2023/06/04 14:38:39;;;;;;;6.00;2.63;;;;;;;;;;4908807;29;20095;-41
2023/06/04 14:41:05;;;;;;;6.72;2.50;;;;;;;;;;4906438;29;20111;-43